Relevés horaires Beauvechain (Belgique)


Relevés horaires à Beauvechain - Mercredi 29 Mars 2017
Heure UTC1 Température [°C] Vent [km/h] Hum. [%] Pres.4 [hPa] Visi. [Km] Nébu. [octa] Préc.5 [mm] Cond.
2m. Res. Ros. Dir.2 Vit. Moy. Raf.3
23:00 12.3 11.8 7.3 SSO 7.4 -- 9.3 71 1026.2(-0.1/3h) 20 -- -- --
22:00 13.0 13.0 7.6 SSO 3.7 -- 9.3 70 1026.4(0.2/3h) 20 -- -- --
21:00 13.2 13.2 7.4 SSO 5.6 -- 7.4 68 1026.5(0.9/3h) 20 -- -- --
20:00 13.4 13.4 7.5 SSO 5.6 -- 5.6 67 1026.4(1.0/3h) 20 -- -- --
19:00 13.8 13.8 7.3 NNO 1.9 -- 5.6 65 1026(0.9/3h) 20 -- -- --
18:00 14.6 14.6 6.9 SO 5.6 -- 16.7 60 1025.5(0.2/3h) 20 -- -- --
17:00 15.2 15.2 7.0 OSO 7.4 -- 14.8 58 1025.2(-0.5/3h) 20 -- -- --
16:00 15.3 15.1 7.8 OSO 9.3 9.3 13.0 61 1024.9(-1.1/3h) 20 7/8 -- --
15:00 15.1 14.6 7.7 SO 11.1 -- 16.7 61 1025.2(-1.1/3h) 20 7/8 -- --
14:00 14.3 13.9 8.5 SO 9.3 -- 16.7 68 1025.7(-0.7/3h) 20 7/8 -- --
13:00 14.6 14 9.2 SO 11.1 -- 16.7 70 1026(-0.4/3h) 20 6/8 -- --
12:00 13.6 12.6 8.2 OSO 13.0 -- 20.4 70 1026.5(0.0/3h) 20 7/8 -- --
11:00 13.5 12.7 8.1 SO 11.1 -- 20.4 70 1026.5(0.7/3h) 20 7/8 -- --
10:00 12.6 11.8 7.9 SO 9.3 -- 18.5 73 1026.7(1.1/3h) 20 7/8 -- Etat du ciel inchangé
09:00 11.6 10.7 7.1 OSO 9.3 -- 16.7 74 1026.5(1.5/3h) 14 7/8 -- Il est tombé de la pluie (non sous forme d'averses) à la station au cours de l'heure précédente, mais il n'y en a pas au moment de l'observation
08:00 11.6 10.7 6.7 SO 9.3 -- 14.8 72 1025.9(1.0/3h) 20 6/8 -- --
07:00 9.8 8.5 6.6 SO 9.3 -- 13.0 80 1025.5(0.9/3h) 20 6/8 -- --
06:00 9.8 8.5 6.8 SO 9.3 -- 13.0 82 1025(0.4/3h) 20 5/8 -- --
05:00 9.9 8.6 6.9 SO 9.3 -- 11.1 82 1024.9(0.0/3h) 20 5/8 -- --
04:00 9.2 8.7 6.7 SSO 5.6 -- 9.3 84 1024.7(-0.4/3h) 20 -- -- --
03:00 9.0 8 6.7 SSO 7.4 -- 9.3 85 1024.7(-0.3/3h) 16 -- -- --
02:00 9.4 8.9 7.4 SSO 5.6 -- 7.4 87 1025(0.0/3h) 13 -- -- --
01:00 9.0 8.4 7.1 SSO 5.6 -- 7.4 88 1025(0.1/3h) 13 -- -- --
00:00 9.6 9.1 7.1 SSO 5.6 -- 14.8 84 1025(0.4/3h) 17 -- -- --

1 Coordinated Universal Time. Actuellement il est 14:00 locale et 13:00 UTC.

2 Le vent souffle depuis la direction indiquée vers la direction oposée.

3 Les rafales max. sont disponible 40 min après l'heure du relevé.

4 Pour les stations d'altitude (plus de 600m) le géopotentiel du niveau le plus proche de la pression obligatoire est indiqué.

5 Les stations disposant d'un diffuseur peuvent indiquer "trace". Cela signifie que des précipitations ont touchés le sol mais que la quantité est inférieure à 0.1 mm.

Récapitulatif de la journée
Température [°C] Vent [km/h] Ensoleillement4 [h] Precipitations totale5 [mm] Pression [Hpa]
Min1 Max.2 Moy.3 Max. Min Max.
8.6 15.6 9.3 20.4 0 h 0 min 0 1024.7 1026.7

1 Température minimale relevée entre 18:00 UTC la veille et 18:00 UTC le jour donné.

2 Température maximale relevée entre 06:00 UTC le jour donné et 06:00 UTC le lendemain.

3 Vent moyen de la journée basé sur les relevés horaires.

4 Ensoleillement en heures relevé entre 06:00 UTC la veille et 06:00 UTC le jour donné.

5 Précipitations totales tombées entre 06:00 UTC la jour donné et 06:00 UTC le lendemain.

Graphiques horaires